• Join FlightAware (Why Join?)
  • Login
  • US Flag 
03:15AM EST


 

Airport Tracker/Info


-or-


 

Live Flight TrackerFlight Track Log ✈ N589H ✈ 16-Jan-2014 ✈ TKPK / SKB - MYNN / NAS

Flight Track Log - Related Links

Times and Time Zones

All times are in EST time to prevent confusion due to time zone crossing. See the N589H flight status page for this flight to view local times or setup timezone preferences in your user account.

Time Position Orientation Groundspeed Altitude Reporting Facility
EST Latitude Longitude Course Direction KTS MPH feet Rate Location/Type
12:42AM 17.3333 -62.8833 302° West 250 288 9,000  Level San Juan Center
12:43AM 17.3291 -62.7489 302° West  Level Estimated
12:43AM 17.3667 -62.9333 305° West 230 265 11,300  Level San Juan Center
12:44AM 17.3739 -62.8245 302° West  Level Estimated
12:45AM 17.4187 -62.9001 302° West  Level Estimated
12:45AM 17.4333 -63.0500 301° West 240 276 14,500  Level San Juan Center
12:46AM 17.4635 -62.9758 302° West  Level Estimated
12:46AM 17.4667 -63.1167 298° West 240 276 16,300  Level San Juan Center
12:47AM 17.5082 -63.0515 302° West  Level Estimated
12:47AM 17.5000 -63.1833 298° West 230 265 18,000  Level San Juan Center
12:48AM 17.5167 -63.2333 289° West 240 276 19,500 1,500 Climbing San Juan Center
12:49AM 17.5500 -63.3000 298° West 250 288 21,000 1,440 Climbing San Juan Center
12:50AM 17.5833 -63.3667 298° West 250 288 22,500 1,380 Climbing San Juan Center
12:51AM 17.6167 -63.4333 298° West 250 288 23,800 1,200 Climbing San Juan Center
12:52AM 17.6500 -63.5000 298° West 260 299 25,000 1,200 Climbing San Juan Center
12:53AM 17.6833 -63.5667 298° West 260 299 26,200 900 Climbing San Juan Center
12:54AM 17.7167 -63.6500 293° West 270 311 26,800 600 Climbing San Juan Center
12:55AM 17.7333 -63.7167 285° West 290 334 27,400 660 Climbing San Juan Center
12:56AM 17.7833 -63.8000 302° West 290 334 28,200 780 Climbing San Juan Center
12:57AM 17.8167 -63.8667 298° West 290 334 29,000 720 Climbing San Juan Center
12:58AM 17.8500 -63.9500 293° West 290 334 29,700 660 Climbing San Juan Center
12:59AM 17.8833 -64.0167 298° West 290 334 30,400 600 Climbing San Juan Center
01:00AM 17.9167 -64.1000 293° West 290 334 31,000 600 Climbing San Juan Center
01:01AM 17.9500 -64.1667 298° West 290 334 31,600 540 Climbing San Juan Center
01:02AM 17.9833 -64.2500 293° West 290 334 32,100 540 Climbing San Juan Center
01:03AM 18.0167 -64.3333 293° West 290 334 32,700 480 Climbing San Juan Center
01:04AM 18.0667 -64.4000 308° West 290 334 33,100 300 Climbing San Juan Center
01:05AM 18.1000 -64.4833 293° West 290 334 33,400 300 Climbing San Juan Center
01:06AM 18.1333 -64.5500 298° West 300 345 33,700 300 Climbing San Juan Center
01:07AM 18.1667 -64.6333 293° West 290 334 34,000 300 Climbing San Juan Center
01:08AM 18.2000 -64.7167 293° West 300 345 34,400 300 Climbing San Juan Center
01:09AM 18.2333 -64.7833 298° West 290 334 34,700 240 Climbing San Juan Center
01:10AM 18.2667 -64.8667 293° West 290 334 35,000 240 Climbing San Juan Center
01:11AM 18.3000 -64.9500 293° West 320 368 35,200 180 Climbing San Juan Center
01:12AM 18.3500 -65.0167 308° West 300 345 35,400 180 Climbing San Juan Center
01:13AM 18.3833 -65.1000 293° West 290 334 35,600 300 Climbing San Juan Center
01:14AM 18.4167 -65.1833 293° West 300 345 36,000 180 Climbing San Juan Center
01:15AM 18.4500 -65.2667 293° West 300 345 36,000  Level San Juan Center
01:16AM 18.4833 -65.3333 298° West 300 345 36,000  Level San Juan Center
01:17AM 18.5167 -65.4167 293° West 290 334 36,000  Level San Juan Center
01:18AM 18.5500 -65.5000 293° West 310 357 36,000  Level San Juan Center
01:19AM 18.6000 -65.5833 302° West 310 357 36,000  Level San Juan Center
01:20AM 18.6333 -65.6667 293° West 310 357 36,000  Level San Juan Center
01:21AM 18.6667 -65.7500 293° West 310 357 36,000  Level San Juan Center
01:22AM 18.7000 -65.8333 293° West 300 345 36,000  Level San Juan Center
01:23AM 18.7333 -65.9167 293° West 310 357 36,000  Level San Juan Center
01:24AM 18.7833 -66.0000 302° West 310 357 36,000  Level San Juan Center
01:25AM 18.8167 -66.0833 293° West 300 345 36,000  Level San Juan Center
01:26AM 18.8500 -66.1500 298° West 310 357 36,000  Level San Juan Center
01:27AM 18.8833 -66.2333 293° West 300 345 36,000  Level San Juan Center
01:28AM 18.9167 -66.3167 293° West 300 345 36,000  Level San Juan Center
01:29AM 18.9500 -66.4000 293° West 300 345 36,000  Level San Juan Center
01:30AM 19.0000 -66.4833 302° West 300 345 36,000  Level San Juan Center
01:31AM 19.0333 -66.5667 293° West 300 345 36,000  Level San Juan Center
01:32AM 19.0667 -66.6333 298° West 300 345 36,000  Level San Juan Center
01:33AM 19.1000 -66.7167 293° West 310 357 36,000  Level San Juan Center
01:34AM 19.1333 -66.8000 293° West 300 345 36,000  Level San Juan Center
01:35AM 19.1667 -66.8667 298° West 300 345 36,000  Level San Juan Center
01:36AM 19.2000 -66.9500 293° West 310 357 36,000  Level San Juan Center
01:37AM 19.2333 -67.0333 293° West 300 345 36,000  Level San Juan Center
01:38AM 19.2667 -67.1167 293° West 310 357 36,000  Level San Juan Center
01:39AM 19.3000 -67.2000 293° West 290 334 36,000  Level San Juan Center
01:40AM 19.3333 -67.2833 293° West 310 357 36,000  Level San Juan Center
01:41AM 19.3667 -67.3667 293° West 310 357 36,000  Level San Juan Center
01:42AM 19.4167 -67.4333 308° West 300 345 36,000  Level San Juan Center
01:43AM 19.4500 -67.5167 293° West 300 345 36,000  Level San Juan Center
01:44AM 19.4833 -67.6000 293° West 310 357 36,000  Level San Juan Center
01:45AM 19.5167 -67.6833 293° West 300 345 36,000  Level San Juan Center
01:46AM 19.5500 -67.7667 293° West 300 345 36,000  Level San Juan Center
01:47AM 19.5833 -67.8500 293° West 300 345 36,000  Level San Juan Center
01:48AM 19.6167 -67.9333 293° West 300 345 36,000  Level San Juan Center
01:49AM 19.6667 -68.0167 303° West 300 345 36,000  Level San Juan Center
01:50AM 19.7000 -68.1000 293° West 310 357 36,000  Level San Juan Center
01:51AM 19.7333 -68.1833 293° West 310 357 36,000  Level San Juan Center
01:52AM 19.7667 -68.2667 293° West 320 368 36,000 -300 Level San Juan Center
01:53AM 19.8464 -68.4256 298° West 357 411 35,300 -480 Descending Miami Center
01:54AM 19.8847 -68.5156 294° West 345 397 34,800 -540 Descending Miami Center
01:55AM 19.9186 -68.6081 291° West 340 391 34,300 -360 Descending Miami Center
01:56AM 19.9608 -68.7003 296° West 340 391 34,100 -180 Descending Miami Center
01:57AM 20.0011 -68.7903 295° West 345 397 34,000 -60 Descending Miami Center
01:58AM 20.0383 -68.8675 297° West 340 391 34,000  Level Miami Center
01:59AM 20.0881 -68.9461 304° West 335 386 34,000  Level Miami Center
02:00AM 20.1381 -69.0269 303° West 330 380 34,000  Level Miami Center
02:01AM 20.1894 -69.1011 306° West 330 380 34,000  Level Miami Center
02:02AM 20.2353 -69.1847 300° West 325 374 34,000  Level Miami Center
02:03AM 20.2850 -69.2636 304° West 325 374 34,000  Level Miami Center
02:04AM 20.3325 -69.3406 303° West 325 374 34,000  Level Miami Center
02:05AM 20.3822 -69.4217 303° West 325 374 34,000  Level Miami Center
02:06AM 20.4317 -69.5008 304° West 325 374 34,000  Level Miami Center
02:07AM 20.4792 -69.5822 302° West 325 374 34,000  Level Miami Center
02:08AM 20.5267 -69.6614 303° West 325 374 34,000  Level Miami Center
02:09AM 20.5761 -69.7406 304° West 325 374 34,000  Level Miami Center
02:10AM 20.6256 -69.8200 304° West 325 374 34,000  Level Miami Center
02:11AM 20.6772 -69.9036 303° West 330 380 34,000  Level Miami Center
02:12AM 20.7247 -69.9833 303° West 330 380 34,000  Level Miami Center
02:13AM 20.7742 -70.0650 303° West 330 380 34,000  Level Miami Center
02:14AM 20.8214 -70.1467 302° West 330 380 34,000  Level Miami Center
02:15AM 20.8728 -70.2286 304° West 330 380 34,000  Level Miami Center
02:16AM 20.9222 -70.3125 302° West 330 380 34,000  Level Miami Center
02:17AM 20.9694 -70.3947 302° West 330 380 34,000  Level Miami Center
02:18AM 21.0208 -70.4744 305° West 330 380 34,000  Level Miami Center
02:19AM 21.0681 -70.5564 302° West 330 380 34,000  Level Miami Center
02:20AM 21.1192 -70.6386 304° West 330 380 34,000  Level Miami Center
02:21AM 21.1686 -70.7231 302° West 330 380 34,000  Level Miami Center
02:22AM 21.2175 -70.8031 303° West 330 380 34,000  Level Miami Center
02:23AM 21.2667 -70.8853 303° West 330 380 34,000  Level Miami Center
02:24AM 21.3156 -70.9678 302° West 330 380 34,000  Level Miami Center
02:25AM 21.3647 -71.0525 302° West 330 380 34,000  Level Miami Center
02:26AM 21.4183 -71.1458 302° West 330 380 34,000  Level Miami Center
02:27AM 21.4606 -71.2131 304° West 330 380 34,000  Level Miami Center
02:28AM 21.5206 -71.3131 303° West 353 406 34,000  Level Miami Center
02:29AM 21.5650 -71.3917 301° West 340 391 34,000  Level Miami Center
02:30AM 21.6158 -71.4719 304° West 330 380 34,000  Level Miami Center
02:31AM 21.6647 -71.5569 302° West 330 380 34,000  Level Miami Center
02:32AM 21.7133 -71.6400 302° West 330 380 34,000  Level Miami Center
02:33AM 21.7600 -71.7231 301° West 330 380 34,000  Level Miami Center
02:34AM 21.8128 -71.8058 304° West 330 380 34,000  Level Miami Center
02:35AM 21.8594 -71.8892 301° West 330 380 34,000  Level Miami Center
02:36AM 21.9081 -71.9722 302° West 330 380 34,000  Level Miami Center
02:37AM 21.9589 -72.0575 303° West 330 380 34,000  Level Miami Center
02:38AM 22.0072 -72.1386 303° West 330 380 34,000  Level Miami Center
02:39AM 22.0558 -72.2242 302° West 330 380 34,000  Level Miami Center
02:40AM 22.1064 -72.3097 303° West 330 380 34,000  Level Miami Center
02:41AM 22.1547 -72.3933 302° West 330 380 34,000  Level Miami Center
02:42AM 22.2053 -72.4789 303° West 330 380 34,000  Level Miami Center
02:43AM 22.2514 -72.5625 301° West 330 380 34,000  Level Miami Center
02:44AM 22.3039 -72.6483 303° West 330 380 34,000  Level Miami Center
02:45AM 22.3522 -72.7344 301° West 330 380 34,000  Level Miami Center
02:46AM 22.4006 -72.8181 302° West 330 380 34,000  Level Miami Center
02:47AM 22.4528 -72.8997 305° West 330 380 34,000  Level Miami Center
02:48AM 22.4989 -72.9881 299° West 330 380 34,000  Level Miami Center
02:49AM 22.5469 -73.0744 301° West 330 380 34,000  Level Miami Center
02:50AM 22.5886 -73.1542 300° West 330 380 34,000  Level Miami Center
02:51AM 22.6389 -73.2428 302° West 336 387 34,000  Level Miami Center
02:52AM 22.6908 -73.3267 304° West 336 387 34,000  Level Miami Center
02:53AM 22.7408 -73.4111 303° West 336 387 34,000  Level Miami Center
02:54AM 22.7867 -73.4997 299° West 331 381 34,000  Level Miami Center
02:55AM 22.8386 -73.5819 304° West 331 381 34,000  Level Miami Center
02:56AM 22.8864 -73.6664 302° West 331 381 34,000  Level Miami Center
02:57AM 22.9342 -73.7531 301° West 331 381 34,000  Level Miami Center
02:58AM 22.9819 -73.8353 302° West 331 381 34,000  Level Miami Center
02:59AM 23.0275 -73.9222 300° West 331 381 34,000  Level Miami Center
03:00AM 23.0792 -74.0025 305° West 331 381 34,000  Level Miami Center
03:01AM 23.1244 -74.0872 300° West 331 381 34,000  Level Miami Center
03:02AM 23.1719 -74.1697 302° West 331 381 34,000  Level Miami Center
03:03AM 23.2153 -74.2525 300° West 326 375 34,000  Level Miami Center
03:04AM 23.2669 -74.3350 304° West 326 375 34,000  Level Miami Center
03:05AM 23.3100 -74.4181 299° West 326 375 34,000  Level Miami Center
03:06AM 23.3553 -74.4986 301° West 326 375 34,000  Level Miami Center
03:07AM 23.4003 -74.5792 301° West 321 369 34,000  Level Miami Center
03:08AM 23.4475 -74.6600 302° West 321 369 34,000  Level Miami Center
03:09AM 23.4906 -74.7431 299° West 315 362 34,000  Level Miami Center
03:10AM 23.5397 -74.8236 304° West 315 362 34,000  Level Miami Center
03:11AM 23.5889 -74.9044 304° West 315 362 34,000  Level Miami Center
03:12AM 23.6381 -74.9900 302° West 315 362 34,000  Level Miami Center
03:13AM 23.6850 -75.0708 302° West 320 368 34,000  Level Miami Center
03:14AM 23.7319 -75.1542 302° West 320 368 34,000  Level Miami Center
03:15AM 23.7786 -75.2353 302° West 315 362 34,000  Level Miami Center
03:16AM 23.8278 -75.3189 303° West 315 362 34,000 -240 Level Miami Center
03:17AM 23.8619 -75.4092 292° West 315 362 33,600 -540 Descending Miami Center
03:18AM 23.8942 -75.5042 290° West 327 376 33,000 -720 Descending Miami Center
03:19AM 23.9286 -75.6017 291° West 334 384 32,200 -1,260 Descending Miami Center
03:20AM 23.9669 -75.7014 293° West 354 407 30,500 -1,680 Descending Miami Center
03:21AM 24.0219 -75.7897 304° West 354 407 28,900 -1,620 Descending Miami Center
03:22AM 24.0811 -75.8847 304° West 354 407 27,300 -1,620 Descending Miami Center
03:23AM 24.1381 -75.9775 304° West 367 422 25,700 -1,620 Descending Miami Center
03:24AM 24.1931 -76.0683 304° West 367 422 24,100 -1,560 Descending Miami Center
03:25AM 24.2478 -76.1592 303° West 367 422 22,600 -1,620 Descending Miami Center
03:26AM 24.2983 -76.2456 303° West 360 414 21,000 -1,620 Descending Miami Center
03:27AM 24.3508 -76.3342 303° West 350 403 19,400 -1,620 Descending Miami Center
03:28AM 24.4014 -76.4231 302° West 350 403 17,800 -1,440 Descending Miami Center
03:29AM 24.4517 -76.5072 303° West 340 391 16,700 -900 Descending Miami Center
03:30AM 24.4981 -76.5961 300° West 340 391 16,000 -720 Descending Miami Center
03:31AM 24.5461 -76.6783 303° West 340 391 15,300 -720 Descending Miami Center
03:32AM 24.5922 -76.7650 300° West 340 391 14,600 -720 Descending Miami Center
03:33AM 24.6425 -76.8475 304° West 334 384 13,900 -720 Descending Miami Center
03:34AM 24.6883 -76.9297 302° West 328 377 13,200 -720 Descending Miami Center
03:35AM 24.7342 -77.0122 301° West 322 371 12,500 -1,200 Descending Miami Center
03:36AM 24.7781 -77.0922 301° West 316 364 10,800 -2,280 Descending Miami Center
03:37AM 24.8197 -77.1656 302° West 304 350 7,900 -2,820 Descending Miami Center
03:39AM 24.8849 -77.2547 304° West  Level Estimated
03:46AM 25.0333 -77.4500 310° West  Level FlightAware Approximate
03:47AM 25.0390 -77.4662 310° West  Level Estimated
03:48AM 25.0390 -77.4662 310° West  Level Estimated
03:49AM 25.0390 -77.4662 310° West  Level Estimated
03:50AM 25.0390 -77.4662 310° West  Level Estimated
03:51AM 25.0390 -77.4662 310° West  Level Estimated
03:52AM 25.0390 -77.4662 310° West  Level Estimated
03:53AM 25.0390 -77.4662 310° West  Level Estimated
03:54AM 25.0390 -77.4662 310° West  Level Estimated
03:55AM 25.0390 -77.4662 310° West  Level Estimated
03:56AM 25.0390 -77.4662 310° West  Level Estimated
03:57AM 25.0390 -77.4662 310° West  Level Estimated